Time;durP1;ratioP1;P1;durP2;ratioP2;P2;SDS_P1;SDS_P2;PMS_P1;PMS_P2;Temp;Humidity;BMP_temperature;BMP_pressure;BME280_temperature;BME280_humidity;BME280_pressure;Samples;Min_cycle;Max_cycle;Signal;HPM_P1;HPM_P2
2021/07/23 00:01:17;;;;;;;12.52;9.30;;;15.70;99.90;;;;;;5096789;28;20095;-72
2021/07/23 00:03:43;;;;;;;11.55;9.15;;;15.60;99.90;;;;;;5096712;28;20449;-72
2021/07/23 00:06:09;;;;;;;17.63;10.30;;;15.60;99.90;;;;;;5096134;28;20047;-72
2021/07/23 00:08:34;;;;;;;16.80;10.02;;;15.60;99.90;;;;;;5096082;28;20028;-72
2021/07/23 00:11:00;;;;;;;15.60;9.82;;;15.50;99.90;;;;;;5096294;28;20028;-72
2021/07/23 00:13:25;;;;;;;13.93;10.25;;;15.40;99.90;;;;;;5094991;28;20481;-72
2021/07/23 00:15:51;;;;;;;18.17;10.80;;;15.30;99.90;;;;;;5095087;28;20374;-72
2021/07/23 00:18:17;;;;;;;13.32;10.15;;;15.30;99.90;;;;;;5096235;28;20024;-72
2021/07/23 00:20:42;;;;;;;14.35;10.23;;;15.30;99.90;;;;;;5095917;28;20020;-69
2021/07/23 00:23:08;;;;;;;13.13;10.35;;;15.20;99.90;;;;;;5096357;28;20085;-69
2021/07/23 00:25:35;;;;;;;15.50;10.45;;;15.10;99.90;;;;;;5094576;28;20032;-69
2021/07/23 00:28:01;;;;;;;14.68;10.63;;;15.00;99.90;;;;;;5094533;28;20020;-69
2021/07/23 00:30:27;;;;;;;17.67;9.65;;;15.00;99.90;;;;;;5095849;28;20031;-69
2021/07/23 00:32:52;;;;;;;16.17;9.90;;;15.00;99.90;;;;;;5094379;28;20075;-69
2021/07/23 00:35:18;;;;;;;13.75;10.35;;;14.90;99.90;;;;;;5077511;28;20103;-69
2021/07/23 00:37:43;;;;;;;15.57;10.60;;;14.90;99.90;;;;;;5095808;28;20085;-69
2021/07/23 00:40:09;;;;;;;16.45;10.38;;;14.90;99.90;;;;;;5095042;28;20403;-69
2021/07/23 00:42:39;;;;;;;17.35;10.25;;;14.90;99.90;;;;;;5096028;28;20028;-69
2021/07/23 00:45:05;;;;;;;14.45;10.32;;;14.80;99.90;;;;;;5095962;28;20022;-69
2021/07/23 00:47:31;;;;;;;19.77;10.38;;;14.80;99.90;;;;;;5095923;28;20141;-69
2021/07/23 00:49:57;;;;;;;18.63;10.77;;;14.80;99.90;;;;;;5095863;28;20052;-69
2021/07/23 00:52:22;;;;;;;16.45;10.88;;;14.80;99.90;;;;;;5094537;28;20031;-69
2021/07/23 00:54:48;;;;;;;16.98;10.88;;;14.70;99.90;;;;;;5095638;28;20024;-69
2021/07/23 00:57:14;;;;;;;14.38;10.00;;;14.60;99.90;;;;;;5095746;28;20028;-69
2021/07/23 00:59:39;;;;;;;18.25;10.73;;;14.60;99.90;;;;;;5095699;28;20488;-69
2021/07/23 01:02:05;;;;;;;17.20;11.25;;;14.60;99.90;;;;;;5095319;28;20075;-69
2021/07/23 01:04:31;;;;;;;13.45;10.57;;;14.40;99.90;;;;;;5094999;28;20058;-69
2021/07/23 01:06:57;;;;;;;17.83;12.25;;;14.40;99.90;;;;;;5094525;28;20481;-69
2021/07/23 01:09:23;;;;;;;15.93;11.18;;;14.40;99.90;;;;;;5095193;28;20527;-69
2021/07/23 01:11:49;;;;;;;14.95;10.98;;;14.40;99.90;;;;;;5095143;28;20020;-69
2021/07/23 01:14:15;;;;;;;14.95;10.23;;;14.30;99.90;;;;;;5093486;28;20123;-69
2021/07/23 01:16:41;;;;;;;13.35;10.32;;;14.30;99.90;;;;;;5095313;28;20062;-69
2021/07/23 01:19:09;;;;;;;16.75;11.32;;;14.30;99.90;;;;;;5095260;28;20020;-69
2021/07/23 01:21:35;;;;;;;14.73;10.90;;;14.20;99.90;;;;;;5095254;28;20048;-69
2021/07/23 01:24:01;;;;;;;14.52;10.68;;;14.20;99.90;;;;;;5093379;28;20024;-69
2021/07/23 01:26:27;;;;;;;18.13;11.75;;;14.10;99.90;;;;;;5095134;28;20031;-69
2021/07/23 01:28:52;;;;;;;14.63;11.15;;;14.10;99.90;;;;;;5095117;28;20050;-69
2021/07/23 01:31:18;;;;;;;16.42;11.55;;;14.10;99.90;;;;;;5094479;28;20086;-69
2021/07/23 01:33:44;;;;;;;16.23;11.18;;;14.10;99.90;;;;;;5093182;28;20044;-69
2021/07/23 01:36:09;;;;;;;15.80;10.40;;;14.00;99.90;;;;;;5093507;28;20028;-69
2021/07/23 01:38:37;;;;;;;14.23;11.13;;;14.00;99.90;;;;;;5094924;28;20020;-69
2021/07/23 01:41:03;;;;;;;17.80;11.20;;;14.00;99.90;;;;;;5094901;28;20514;-68
2021/07/23 01:43:29;;;;;;;16.88;11.18;;;13.90;99.90;;;;;;5094025;28;20028;-69
2021/07/23 01:45:56;;;;;;;19.27;12.07;;;13.90;99.90;;;;;;5093366;28;20089;-69
2021/07/23 01:48:22;;;;;;;16.33;11.32;;;13.90;99.90;;;;;;5094768;28;20027;-68
2021/07/23 01:50:47;;;;;;;18.10;11.13;;;13.80;99.90;;;;;;5094701;28;20032;-68
2021/07/23 01:53:13;;;;;;;17.02;11.52;;;13.80;99.90;;;;;;5094583;28;20485;-69
2021/07/23 01:55:42;;;;;;;15.85;11.27;;;13.80;99.90;;;;;;5094092;28;20107;-69
2021/07/23 01:58:09;;;;;;;18.58;11.63;;;13.70;99.90;;;;;;5094590;28;20446;-69
2021/07/23 02:00:34;;;;;;;18.27;11.18;;;13.70;99.90;;;;;;5094546;28;20016;-69
2021/07/23 02:03:00;;;;;;;14.30;10.85;;;13.70;99.90;;;;;;5093970;28;20043;-69
2021/07/23 02:05:25;;;;;;;15.88;11.73;;;13.70;99.90;;;;;;5094220;28;20032;-69
2021/07/23 02:07:51;;;;;;;17.10;11.70;;;13.60;99.90;;;;;;5094402;28;20355;-68
2021/07/23 02:10:16;;;;;;;15.30;11.98;;;13.60;99.90;;;;;;5094414;28;20054;-69
2021/07/23 02:12:42;;;;;;;19.52;11.88;;;13.70;99.90;;;;;;5093723;28;20077;-68
2021/07/23 02:15:08;;;;;;;15.38;11.82;;;13.70;99.90;;;;;;5094374;28;20483;-68
2021/07/23 02:17:33;;;;;;;18.38;11.98;;;13.70;99.90;;;;;;5093743;28;20028;-69
2021/07/23 02:19:59;;;;;;;21.10;12.77;;;13.70;99.90;;;;;;5092856;28;20073;-68
2021/07/23 02:22:24;;;;;;;15.13;11.70;;;13.70;99.90;;;;;;5094254;28;20027;-69
2021/07/23 02:24:50;;;;;;;16.35;10.88;;;13.60;99.90;;;;;;5093919;28;20028;-69
2021/07/23 02:27:16;;;;;;;22.30;11.80;;;13.50;99.90;;;;;;5092412;28;20051;-69
2021/07/23 02:29:41;;;;;;;20.48;12.10;;;13.50;99.90;;;;;;5093872;28;20049;-69
2021/07/23 02:32:07;;;;;;;18.00;11.43;;;13.40;99.90;;;;;;5092621;28;20036;-68
2021/07/23 02:34:33;;;;;;;17.70;11.45;;;13.40;99.90;;;;;;5093422;28;20104;-69
2021/07/23 02:36:59;;;;;;;16.80;11.60;;;13.40;99.90;;;;;;5092672;28;20028;-69
2021/07/23 02:39:25;;;;;;;15.88;11.90;;;13.30;99.90;;;;;;5093470;28;20038;-68
2021/07/23 02:41:51;;;;;;;20.38;12.00;;;13.30;99.90;;;;;;5094059;28;20016;-69
2021/07/23 02:44:17;;;;;;;18.17;12.70;;;13.20;99.90;;;;;;5093772;28;20024;-69
2021/07/23 02:46:42;;;;;;;21.17;12.35;;;13.20;99.90;;;;;;5094008;28;20485;-68
2021/07/23 02:49:08;;;;;;;24.05;13.27;;;13.10;99.90;;;;;;5093935;28;20028;-69
2021/07/23 02:51:33;;;;;;;18.95;12.73;;;13.00;99.90;;;;;;5093712;28;20028;-68
2021/07/23 02:53:59;;;;;;;19.85;12.68;;;13.10;99.90;;;;;;5093857;28;20028;-68
2021/07/23 02:56:26;;;;;;;17.95;12.85;;;13.00;99.90;;;;;;5097605;28;20039;-69
2021/07/23 02:58:51;;;;;;;19.92;12.68;;;13.00;99.90;;;;;;5098017;28;20149;-69
2021/07/23 03:01:17;;;;;;;18.40;12.80;;;13.00;99.90;;;;;;5097385;28;20061;-68
2021/07/23 03:03:42;;;;;;;19.40;12.98;;;13.00;99.90;;;;;;5097611;28;20053;-69
2021/07/23 03:06:08;;;;;;;17.50;13.07;;;13.00;99.90;;;;;;5096407;28;20028;-69
2021/07/23 03:08:34;;;;;;;18.50;13.27;;;12.90;99.90;;;;;;5095995;28;20492;-69
2021/07/23 03:11:02;;;;;;;20.48;13.68;;;12.90;99.90;;;;;;5095975;28;20108;-69
2021/07/23 03:13:27;;;;;;;21.88;13.07;;;12.90;99.90;;;;;;5096477;28;20023;-69
2021/07/23 03:15:53;;;;;;;17.83;12.95;;;12.90;99.90;;;;;;5097626;28;20024;-68
2021/07/23 03:18:18;;;;;;;19.85;13.02;;;12.90;99.90;;;;;;5097346;28;20028;-68
2021/07/23 03:20:44;;;;;;;23.00;13.73;;;12.90;99.90;;;;;;5097305;28;20456;-68
2021/07/23 03:23:09;;;;;;;17.13;13.30;;;13.00;99.90;;;;;;5097574;28;20380;-68
2021/07/23 03:25:36;;;;;;;23.65;13.75;;;12.90;99.90;;;;;;5097516;28;20028;-69
2021/07/23 03:28:02;;;;;;;18.15;13.65;;;12.90;99.90;;;;;;5097151;28;20078;-69
2021/07/23 03:30:27;;;;;;;18.88;13.48;;;12.90;99.90;;;;;;5096266;28;20032;-69
2021/07/23 03:32:53;;;;;;;26.65;13.85;;;12.80;99.90;;;;;;5096806;28;20052;-68
2021/07/23 03:35:19;;;;;;;20.08;13.90;;;12.80;99.90;;;;;;5095895;28;20477;-69
2021/07/23 03:37:44;;;;;;;19.15;14.20;;;12.80;99.90;;;;;;5096975;28;20118;-68
2021/07/23 03:40:10;;;;;;;22.08;14.90;;;12.70;99.90;;;;;;5097195;28;20053;-68
2021/07/23 03:42:36;;;;;;;24.48;14.90;;;12.60;99.90;;;;;;5096890;28;20049;-68
2021/07/23 03:45:02;;;;;;;25.02;14.23;;;12.60;99.90;;;;;;5095694;28;20028;-68
2021/07/23 03:47:28;;;;;;;20.50;14.98;;;12.60;99.90;;;;;;5095959;28;20097;-68
2021/07/23 03:49:53;;;;;;;23.98;15.48;;;12.60;99.90;;;;;;5095784;28;20461;-68
2021/07/23 03:52:19;;;;;;;25.25;15.57;;;12.70;99.90;;;;;;5096687;28;20024;-68
2021/07/23 03:54:44;;;;;;;19.35;14.23;;;12.60;99.90;;;;;;5096585;28;20373;-68
2021/07/23 03:57:10;;;;;;;22.85;15.02;;;12.70;99.90;;;;;;5095073;28;20028;-68
2021/07/23 03:59:35;;;;;;;27.33;16.55;;;12.60;99.90;;;;;;5095049;28;20020;-69
2021/07/23 04:02:02;;;;;;;23.42;15.40;;;12.70;99.90;;;;;;5095404;28;20195;-69
2021/07/23 04:04:27;;;;;;;21.40;15.75;;;12.70;99.90;;;;;;5096814;28;20016;-69
2021/07/23 04:06:56;;;;;;;19.98;15.07;;;12.70;99.90;;;;;;5096233;28;20115;-69
2021/07/23 04:09:22;;;;;;;24.08;15.23;;;12.70;99.90;;;;;;5096176;28;20385;-69
2021/07/23 04:11:49;;;;;;;20.70;14.63;;;12.70;99.90;;;;;;5096657;28;20477;-69
2021/07/23 04:14:15;;;;;;;21.25;15.45;;;12.70;99.90;;;;;;5096235;28;20452;-69
2021/07/23 04:16:40;;;;;;;23.70;15.45;;;12.80;99.90;;;;;;5096499;28;20048;-68
2021/07/23 04:19:06;;;;;;;23.52;15.55;;;12.90;99.90;;;;;;5094940;28;20382;-68
2021/07/23 04:21:31;;;;;;;26.10;15.48;;;12.90;99.90;;;;;;5096380;28;20024;-67
2021/07/23 04:23:58;;;;;;;21.90;15.85;;;13.00;99.90;;;;;;5096185;28;20035;-69
2021/07/23 04:26:24;;;;;;;24.40;16.20;;;13.10;99.90;;;;;;5096342;28;20016;-68
2021/07/23 04:28:49;;;;;;;21.23;15.32;;;13.30;99.90;;;;;;5096295;28;20367;-69
2021/07/23 04:31:15;;;;;;;19.88;14.05;;;13.30;99.90;;;;;;5096231;28;20035;-68
2021/07/23 04:33:40;;;;;;;19.10;13.68;;;13.40;99.90;;;;;;5077267;28;20036;-68
2021/07/23 04:36:06;;;;;;;17.98;12.77;;;13.40;99.90;;;;;;5096128;28;20472;-69
2021/07/23 04:38:31;;;;;;;20.42;13.30;;;13.50;99.90;;;;;;5096082;28;20021;-69
2021/07/23 04:40:57;;;;;;;17.27;13.18;;;13.60;99.90;;;;;;5095951;28;20016;-68
2021/07/23 04:43:22;;;;;;;16.20;12.90;;;13.60;99.90;;;;;;5094790;28;20419;-69
2021/07/23 04:45:48;;;;;;;19.20;12.15;;;13.80;99.90;;;;;;5094921;28;20024;-69
2021/07/23 04:48:13;;;;;;;15.65;11.00;;;14.20;99.90;;;;;;5094709;28;20035;-69
2021/07/23 04:50:39;;;;;;;16.27;11.20;;;14.60;99.90;;;;;;5093961;28;20028;-69
2021/07/23 04:53:04;;;;;;;15.27;11.00;;;14.80;99.90;;;;;;5093845;28;20481;-69
2021/07/23 04:55:30;;;;;;;13.60;9.82;;;15.30;99.90;;;;;;5095739;28;20462;-70
2021/07/23 04:57:55;;;;;;;11.93;9.52;;;16.10;99.90;;;;;;5095654;28;20020;-69
2021/07/23 05:00:21;;;;;;;14.38;9.88;;;16.40;99.90;;;;;;5095383;28;20500;-69
2021/07/23 05:02:52;;;;;;;16.45;9.63;;;16.50;99.90;;;;;;5076918;28;20016;-69
2021/07/23 05:05:21;;;;;;;12.85;9.32;;;16.80;99.90;;;;;;5095580;28;20020;-70
2021/07/23 05:07:47;;;;;;;15.82;10.52;;;16.80;99.90;;;;;;5095789;28;20017;-69
2021/07/23 05:10:13;;;;;;;15.10;9.00;;;16.70;99.90;;;;;;5093729;28;20350;-69
2021/07/23 05:12:39;;;;;;;11.23;9.07;;;16.70;99.90;;;;;;5077589;28;20100;-69
2021/07/23 05:15:07;;;;;;;12.40;9.60;;;16.70;99.90;;;;;;5094323;28;20024;-69
2021/07/23 05:17:33;;;;;;;12.18;9.43;;;16.20;99.90;;;;;;5093928;28;20039;-69
2021/07/23 05:20:01;;;;;;;13.88;10.57;;;16.30;99.90;;;;;;5095302;28;20020;-70
2021/07/23 05:22:26;;;;;;;13.80;10.50;;;16.40;99.90;;;;;;5095277;28;20104;-69
2021/07/23 05:24:52;;;;;;;18.55;11.02;;;16.00;99.90;;;;;;5076474;28;20114;-69
2021/07/23 05:27:18;;;;;;;14.70;10.00;;;15.90;99.90;;;;;;5094907;28;20020;-69
2021/07/23 05:29:43;;;;;;;15.80;10.75;;;15.90;99.90;;;;;;5093758;28;20024;-69
2021/07/23 05:32:09;;;;;;;13.13;10.65;;;16.00;99.90;;;;;;5095030;28;20070;-69
2021/07/23 05:34:34;;;;;;;14.05;11.02;;;15.90;99.90;;;;;;5094221;28;20481;-69
2021/07/23 05:37:00;;;;;;;13.45;10.07;;;16.10;99.90;;;;;;5094662;28;20020;-69
2021/07/23 05:39:26;;;;;;;11.52;9.73;;;16.40;99.90;;;;;;5094808;28;20024;-69
2021/07/23 05:41:51;;;;;;;12.27;9.13;;;17.30;99.90;;;;;;5094266;28;20028;-69
2021/07/23 05:44:17;;;;;;;10.45;9.30;;;17.90;99.90;;;;;;5094267;28;20153;-70
2021/07/23 05:46:42;;;;;;;11.50;9.50;;;18.10;99.90;;;;;;5094722;28;20039;-69
2021/07/23 05:49:08;;;;;;;11.35;8.27;;;18.30;99.90;;;;;;5094193;28;20028;-70
2021/07/23 05:51:33;;;;;;;11.23;8.18;;;19.30;99.90;;;;;;5092894;28;20038;-70
2021/07/23 05:53:59;;;;;;;11.50;8.20;;;20.00;99.90;;;;;;5092762;28;20028;-70
2021/07/23 05:56:24;;;;;;;10.27;8.23;;;20.50;99.90;;;;;;5075945;28;20030;-70
2021/07/23 05:58:50;;;;;;;11.00;8.30;;;20.50;99.90;;;;;;5094574;28;20035;-70
2021/07/23 06:01:15;;;;;;;10.32;7.75;;;20.50;99.90;;;;;;5092689;28;20108;-70
2021/07/23 06:03:41;;;;;;;9.20;7.13;;;20.50;99.90;;;;;;5094455;28;20032;-70
2021/07/23 06:06:06;;;;;;;10.82;7.63;;;20.50;99.90;;;;;;5094113;28;20024;-70
2021/07/23 06:08:32;;;;;;;8.80;7.63;;;20.30;99.90;;;;;;5094153;28;20385;-71
2021/07/23 06:11:04;;;;;;;10.38;8.40;;;20.20;99.90;;;;;;5094396;28;20051;-70
2021/07/23 06:13:30;;;;;;;8.30;7.38;;;19.90;99.90;;;;;;5094053;28;20028;-71
2021/07/23 06:15:56;;;;;;;10.40;7.45;;;20.40;99.90;;;;;;5094072;28;20385;-71
2021/07/23 06:18:21;;;;;;;8.48;7.00;;;21.10;99.90;;;;;;5094283;28;20369;-71
2021/07/23 06:20:47;;;;;;;6.95;6.22;;;21.90;99.90;;;;;;5092808;28;20351;-71
2021/07/23 06:23:13;;;;;;;8.90;7.22;;;21.90;99.90;;;;;;5094188;28;20020;-71
2021/07/23 06:25:38;;;;;;;10.30;7.55;;;22.60;99.90;;;;;;5093957;28;20425;-71
2021/07/23 06:28:05;;;;;;;8.52;6.50;;;22.60;99.90;;;;;;5092357;28;20035;-72
2021/07/23 06:30:31;;;;;;;9.25;6.93;;;22.50;99.90;;;;;;5093832;28;20052;-71
2021/07/23 06:32:56;;;;;;;7.90;6.47;;;22.30;99.90;;;;;;5092482;28;20063;-71
2021/07/23 06:35:22;;;;;;;12.75;7.03;;;22.50;99.90;;;;;;5071739;28;20028;-72
2021/07/23 06:37:47;;;;;;;8.95;6.97;;;22.80;99.90;;;;;;5082110;28;20019;-72
2021/07/23 06:40:13;;;;;;;10.07;6.63;;;23.30;99.90;;;;;;5093136;28;20024;-72
2021/07/23 06:42:39;;;;;;;8.98;6.78;;;24.00;99.90;;;;;;5091402;28;20378;-71
2021/07/23 06:45:05;;;;;;;7.15;6.45;;;24.20;99.90;;;;;;5092358;28;20024;-72
2021/07/23 06:47:30;;;;;;;9.50;6.30;;;24.10;99.90;;;;;;5076781;28;20131;-72
2021/07/23 06:49:56;;;;;;;8.50;6.03;;;23.50;99.90;;;;;;5055911;28;20119;-71
2021/07/23 06:52:21;;;;;;;8.10;5.65;;;23.70;99.90;;;;;;5071965;28;20044;-72
2021/07/23 06:54:48;;;;;;;9.30;6.50;;;24.10;99.90;;;;;;5071931;28;20070;-72
2021/07/23 06:57:14;;;;;;;10.27;6.38;;;23.70;99.90;;;;;;5073694;28;20066;-72
2021/07/23 06:59:40;;;;;;;8.60;5.60;;;23.80;99.90;;;;;;5090256;28;20028;-72
2021/07/23 07:02:06;;;;;;;8.32;5.15;;;25.00;99.90;;;;;;5074771;28;20024;-71
2021/07/23 07:04:32;;;;;;;8.13;5.80;;;25.10;99.90;;;;;;5085474;28;20031;-71
2021/07/23 07:06:58;;;;;;;7.80;5.95;;;25.20;99.90;;;;;;5068102;28;20039;-72
2021/07/23 07:09:25;;;;;;;11.45;5.90;;;25.50;99.90;;;;;;5075645;28;20036;-72
2021/07/23 07:11:51;;;;;;;8.52;5.07;;;25.40;99.90;;;;;;5075057;28;20111;-72
2021/07/23 07:14:17;;;;;;;8.65;6.57;;;26.20;99.90;;;;;;5091744;28;20030;-72
2021/07/23 07:16:43;;;;;;;6.13;5.53;;;24.90;99.90;;;;;;5084700;28;20021;-72
2021/07/23 07:19:08;;;;;;;9.93;5.80;;;25.50;99.90;;;;;;5073086;28;20028;-72
2021/07/23 07:21:34;;;;;;;8.05;5.57;;;24.70;99.90;;;;;;5090188;28;20066;-72
2021/07/23 07:24:01;;;;;;;7.03;5.32;;;25.00;99.90;;;;;;5073073;28;20040;-72
2021/07/23 07:26:27;;;;;;;6.90;5.32;;;25.80;99.90;;;;;;5072110;28;20503;-72
2021/07/23 07:28:53;;;;;;;6.63;5.35;;;25.50;99.90;;;;;;5071474;28;20031;-72
2021/07/23 07:31:19;;;;;;;6.85;4.97;;;25.70;99.90;;;;;;5073121;28;20028;-72
2021/07/23 07:33:44;;;;;;;9.32;4.90;;;25.70;99.90;;;;;;5089433;28;20055;-72
2021/07/23 07:36:16;;;;;;;7.70;4.95;;;26.10;99.90;;;;;;5090642;28;20501;-72
2021/07/23 07:38:44;;;;;;;7.43;5.47;;;26.20;99.90;;;;;;5075199;28;20051;-76
2021/07/23 07:41:10;;;;;;;8.15;5.93;;;25.00;99.90;;;;;;5078573;28;20021;-76
2021/07/23 07:43:35;;;;;;;6.43;5.10;;;25.00;99.90;;;;;;5075073;28;20115;-76
2021/07/23 07:46:01;;;;;;;7.03;4.70;;;25.80;99.90;;;;;;5076174;28;20033;-76
2021/07/23 07:48:26;;;;;;;9.25;5.13;;;25.90;99.90;;;;;;5082848;28;20032;-76
2021/07/23 07:50:52;;;;;;;6.53;4.88;;;27.20;99.90;;;;;;5078130;28;20032;-76
2021/07/23 07:53:17;;;;;;;7.82;4.90;;;27.00;99.90;;;;;;5073747;28;20025;-76
2021/07/23 07:55:43;;;;;;;8.98;5.03;;;26.80;99.90;;;;;;5067871;28;20025;-76
2021/07/23 07:58:08;;;;;;;7.40;5.18;;;26.60;99.90;;;;;;5091548;28;20493;-77
2021/07/23 08:00:34;;;;;;;7.45;5.05;;;26.10;99.90;;;;;;5089700;28;20031;-76
2021/07/23 08:03:00;;;;;;;7.45;5.55;;;25.90;99.90;;;;;;5090847;28;20024;-76
2021/07/23 08:05:25;;;;;;;8.45;5.40;;;26.00;99.90;;;;;;5095876;28;20016;-76
2021/07/23 08:07:56;;;;;;;10.40;5.57;;;25.80;99.90;;;;;;5091744;28;20035;-76
2021/07/23 08:10:24;;;;;;;7.18;5.35;;;25.70;99.90;;;;;;5074404;28;20024;-76
2021/07/23 08:12:50;;;;;;;6.40;5.05;;;25.20;99.90;;;;;;5065189;28;20032;-77
2021/07/23 08:15:16;;;;;;;8.02;4.93;;;25.50;99.90;;;;;;5075726;28;20465;-77
2021/07/23 08:17:42;;;;;;;7.20;5.20;;;25.60;99.90;;;;;;5075349;28;20028;-77
2021/07/23 08:20:09;;;;;;;6.05;5.45;;;26.00;99.90;;;;;;5075181;28;20029;-77
2021/07/23 08:22:34;;;;;;;6.82;5.35;;;26.20;99.90;;;;;;5099119;28;20115;-77
2021/07/23 08:25:00;;;;;;;8.27;5.38;;;25.50;99.90;;;;;;5057409;28;20117;-77
2021/07/23 08:27:25;;;;;;;8.98;5.30;;;25.40;99.90;;;;;;5085474;28;20024;-77
2021/07/23 08:29:51;;;;;;;8.43;5.53;;;25.60;99.90;;;;;;5094547;28;20024;-77
2021/07/23 08:32:16;;;;;;;8.95;5.75;;;25.60;99.90;;;;;;5088845;28;20024;-77
2021/07/23 08:34:42;;;;;;;7.88;5.95;;;26.10;99.90;;;;;;5093998;28;20059;-77
2021/07/23 08:37:07;;;;;;;7.97;5.55;;;26.30;99.90;;;;;;5092937;28;20106;-77
2021/07/23 08:39:33;;;;;;;7.18;4.93;;;26.70;99.90;;;;;;5094980;28;20030;-77
2021/07/23 08:42:19;;;;;;;5.63;5.00;;;26.50;99.90;;;;;;5093563;28;20068;-77
2021/07/23 08:44:45;;;;;;;7.95;5.65;;;26.70;99.90;;;;;;5095473;28;20363;-76
2021/07/23 08:47:10;;;;;;;8.55;5.10;;;26.00;99.90;;;;;;5087568;28;20053;-77
2021/07/23 08:49:36;;;;;;;7.32;5.70;;;26.30;99.90;;;;;;5084013;28;20119;-76
2021/07/23 08:52:01;;;;;;;10.23;5.20;;;26.60;99.60;;;;;;5093606;28;20024;-77
2021/07/23 08:54:27;;;;;;;7.00;5.85;;;26.90;99.90;;;;;;5095070;28;20069;-76
2021/07/23 08:56:52;;;;;;;6.00;5.20;;;26.80;99.30;;;;;;5091911;28;20116;-76
2021/07/23 08:59:18;;;;;;;9.90;5.55;;;26.40;99.90;;;;;;5059952;28;20093;-76
2021/07/23 09:02:00;;;;;;;7.82;5.32;;;26.80;99.90;;;;;;5093034;28;20032;-77
2021/07/23 09:04:31;;;;;;;6.30;4.93;;;26.80;99.90;;;;;;5093650;28;20046;-76
2021/07/23 09:09:57;;;;;;;7.57;5.20;;;27.00;99.60;;;;;;5091022;28;20640;-76
2021/07/23 09:12:23;;;;;;;10.43;5.60;;;28.00;99.60;;;;;;5090278;28;20047;-76
2021/07/23 09:14:49;;;;;;;7.05;5.35;;;27.60;98.40;;;;;;5090656;28;20477;-76
2021/07/23 09:17:14;;;;;;;8.82;5.32;;;28.50;98.30;;;;;;5089281;28;20032;-76
2021/07/23 09:19:40;;;;;;;8.43;5.22;;;28.40;97.30;;;;;;5090440;28;20023;-76
2021/07/23 09:22:06;;;;;;;6.18;5.57;;;28.60;96.90;;;;;;5069426;28;20478;-75
2021/07/23 09:24:52;;;;;;;5.95;5.28;;;28.20;97.90;;;;;;5052559;28;20112;-76
2021/07/23 09:27:37;;;;;;;6.85;4.85;;;28.50;95.20;;;;;;5089760;28;20035;-75
2021/07/23 09:30:07;;;;;;;6.93;4.75;;;28.30;95.40;;;;;;5088740;28;20028;-76
2021/07/23 09:32:33;;;;;;;7.28;5.00;;;28.40;96.40;;;;;;5082797;28;20025;-76
2021/07/23 09:35:14;;;;;;;10.90;5.28;;;28.50;96.00;;;;;;5054974;28;20382;-76
2021/07/23 09:37:53;;;;;;;7.15;5.20;;;28.00;95.90;;;;;;5090405;28;20025;-76
2021/07/23 09:40:19;;;;;;;5.57;4.97;;;28.60;96.10;;;;;;5070425;28;20101;-76
2021/07/23 09:42:55;;;;;;;5.75;5.10;;;29.00;95.00;;;;;;5072212;28;20111;-76
2021/07/23 09:45:36;;;;;;;6.45;4.05;;;28.30;95.70;;;;;;5071212;28;20107;-76
2021/07/23 09:48:11;;;;;;;5.28;4.50;;;28.20;96.90;;;;;;5074223;28;20534;-76
2021/07/23 09:50:40;;;;;;;5.40;4.90;;;28.10;96.40;;;;;;5090127;28;20020;-76
2021/07/23 09:53:08;;;;;;;8.20;5.68;;;29.00;95.40;;;;;;5069863;28;20028;-76
2021/07/23 09:55:34;;;;;;;6.10;4.32;;;28.60;94.80;;;;;;5085760;28;20020;-76
2021/07/23 09:58:04;;;;;;;5.68;5.10;;;29.20;95.00;;;;;;5089115;28;20039;-76
2021/07/23 10:00:32;;;;;;;6.63;5.30;;;28.70;96.10;;;;;;5068866;28;20024;-76
2021/07/23 10:02:58;;;;;;;8.10;5.82;;;28.20;95.70;;;;;;5087390;28;20481;-77
2021/07/23 10:05:30;;;;;;;6.47;5.25;;;28.50;94.80;;;;;;5089451;28;20090;-76
2021/07/23 10:08:01;;;;;;;6.03;5.30;;;28.80;94.40;;;;;;5070658;28;20047;-76
2021/07/23 10:10:27;;;;;;;6.40;4.70;;;28.60;95.10;;;;;;5067986;28;20040;-76
2021/07/23 10:12:54;;;;;;;7.00;4.88;;;29.40;94.80;;;;;;5086419;28;20040;-76
2021/07/23 10:15:20;;;;;;;5.97;4.95;;;29.20;94.50;;;;;;5088023;28;20020;-76
2021/07/23 10:17:47;;;;;;;8.07;5.28;;;29.20;94.20;;;;;;5071177;28;20039;-75
2021/07/23 10:20:17;;;;;;;7.47;5.78;;;29.00;94.50;;;;;;5060623;28;20021;-76
2021/07/23 10:22:43;;;;;;;6.30;5.35;;;28.00;94.30;;;;;;5070248;28;20028;-76
2021/07/23 10:25:09;;;;;;;7.95;5.10;;;28.60;95.10;;;;;;5073968;28;20470;-76
2021/07/23 10:27:34;;;;;;;8.88;5.43;;;29.80;94.00;;;;;;5063964;28;20074;-76
2021/07/23 10:30:00;;;;;;;7.35;5.78;;;30.00;91.60;;;;;;5075398;28;20024;-76
2021/07/23 10:32:40;;;;;;;9.07;6.85;;;30.10;91.50;;;;;;5072096;28;20082;-76
2021/07/23 10:38:05;;;;;;;8.00;5.72;;;29.40;94.80;;;;;;5105611;27;20320;-76
2021/07/23 10:40:37;;;;;;;7.47;6.05;;;30.00;91.20;;;;;;5105595;28;20020;-75
2021/07/23 10:43:22;;;;;;;6.03;5.38;;;29.60;91.60;;;;;;5105542;28;20031;-72
2021/07/23 10:45:48;;;;;;;7.40;5.70;;;29.50;92.20;;;;;;5073308;28;20367;-71
2021/07/23 10:48:49;;;;;;;10.15;6.53;;;29.10;93.70;;;;;;5090637;28;20035;-72
2021/07/23 10:51:50;;;;;;;10.60;7.15;;;28.50;91.90;;;;;;5090692;28;20013;-72
2021/07/23 10:54:17;;;;;;;9.55;6.53;;;27.70;93.00;;;;;;5091619;28;20078;-71
2021/07/23 11:02:21;;;;;;;8.35;6.88;;;26.70;95.30;;;;;;5111247;27;20298;-71
2021/07/23 11:04:47;;;;;;;9.82;7.00;;;25.90;95.90;;;;;;5106330;28;20012;-71
2021/07/23 11:07:13;;;;;;;9.63;6.95;;;25.40;96.10;;;;;;5089475;28;20104;-71
2021/07/23 11:09:40;;;;;;;12.52;7.82;;;25.50;97.60;;;;;;5092949;28;20448;-71
2021/07/23 11:12:22;;;;;;;10.63;8.13;;;26.00;97.10;;;;;;5108306;28;20028;-71
2021/07/23 11:14:58;;;;;;;7.93;6.80;;;26.00;96.40;;;;;;5072359;28;20024;-71
2021/07/23 11:17:25;;;;;;;9.60;6.00;;;26.00;97.40;;;;;;5091350;28;20385;-73
2021/07/23 11:19:53;;;;;;;8.60;7.25;;;25.80;99.00;;;;;;5101679;28;20046;-73
2021/07/23 11:22:21;;;;;;;8.02;7.18;;;25.90;98.20;;;;;;5072084;28;20409;-69
2021/07/23 11:24:47;;;;;;;9.57;7.20;;;25.90;97.90;;;;;;5090291;28;20038;-70
2021/07/23 11:27:24;;;;;;;10.90;7.18;;;25.50;97.40;;;;;;5108980;28;20019;-70
2021/07/23 11:29:49;;;;;;;9.05;7.78;;;25.60;97.60;;;;;;5106374;28;20016;-70
2021/07/23 11:32:17;;;;;;;10.18;7.13;;;25.80;97.30;;;;;;5095622;28;20098;-71
2021/07/23 11:34:44;;;;;;;11.43;6.75;;;26.00;97.00;;;;;;5109117;28;20114;-69
2021/07/23 11:37:14;;;;;;;7.80;6.93;;;26.00;98.60;;;;;;5101976;28;20024;-70
2021/07/23 11:39:57;;;;;;;8.57;7.10;;;25.70;97.70;;;;;;5102451;28;20105;-70
2021/07/23 11:42:24;;;;;;;;;;;25.40;98.20;;;;;;5111038;28;20019;-70
2021/07/23 11:44:53;;;;;;;9.88;6.22;;;26.20;98.60;;;;;;5109108;28;19904;-70
2021/07/23 11:47:44;;;;;;;7.85;6.10;;;26.30;97.10;;;;;;5094926;28;20474;-70
2021/07/23 11:50:13;;;;;;;8.23;6.78;;;26.50;97.20;;;;;;5097166;28;20034;-71
2021/07/23 11:52:39;;;;;;;11.02;7.47;;;26.10;98.30;;;;;;5091944;28;20028;-70
2021/07/23 11:55:09;;;;;;;9.25;7.22;;;26.00;96.40;;;;;;5106905;28;20037;-71
2021/07/23 11:57:37;;;;;;;9.35;7.07;;;26.10;96.20;;;;;;5108407;28;20016;-70
2021/07/23 12:00:05;;;;;;;10.38;6.88;;;26.20;96.30;;;;;;5101628;28;20024;-71
2021/07/23 12:02:31;;;;;;;8.25;5.95;;;25.70;96.50;;;;;;5093408;28;20141;-72
2021/07/23 12:05:08;;;;;;;9.35;6.07;;;25.80;99.10;;;;;;5102364;28;20103;-72
2021/07/23 12:07:36;;;;;;;8.77;5.97;;;25.70;97.90;;;;;;5108271;28;20035;-72
2021/07/23 12:10:04;;;;;;;7.85;6.38;;;26.00;97.40;;;;;;5108773;28;20069;-72
2021/07/23 12:12:30;;;;;;;7.43;5.72;;;26.20;97.40;;;;;;5102270;28;20047;-72
2021/07/23 12:15:12;;;;;;;7.72;6.13;;;26.30;96.50;;;;;;5078052;28;20028;-72
2021/07/23 12:17:43;;;;;;;7.35;5.57;;;25.60;97.30;;;;;;5096016;28;20027;-72
2021/07/23 12:20:09;;;;;;;9.60;5.93;;;25.50;98.00;;;;;;5094851;28;20034;-72
2021/07/23 12:22:36;;;;;;;8.20;5.68;;;25.60;96.80;;;;;;5077526;28;20028;-71
2021/07/23 12:25:14;;;;;;;7.30;5.72;;;25.70;96.20;;;;;;5077706;28;20024;-72
2021/07/23 12:27:40;;;;;;;9.35;5.72;;;26.00;96.00;;;;;;5094602;28;20024;-72
2021/07/23 12:30:06;;;;;;;6.57;5.70;;;25.80;96.30;;;;;;5078023;28;20160;-72
2021/07/23 12:32:32;;;;;;;8.55;6.43;;;26.10;95.90;;;;;;5077952;28;20024;-72
2021/07/23 12:34:59;;;;;;;6.43;5.43;;;26.00;93.70;;;;;;5077543;28;20016;-72
2021/07/23 12:37:25;;;;;;;8.88;5.38;;;26.00;94.40;;;;;;5094409;28;20039;-72
2021/07/23 12:39:57;;;;;;;8.90;5.10;;;25.90;95.00;;;;;;5093820;28;20024;-72
2021/07/23 12:42:23;;;;;;;8.02;5.85;;;25.80;95.60;;;;;;5095657;28;20028;-72
2021/07/23 12:44:49;;;;;;;7.93;5.80;;;25.90;94.90;;;;;;5074816;28;20028;-72
2021/07/23 12:47:17;;;;;;;9.00;5.05;;;25.90;94.10;;;;;;5074324;28;20034;-72
2021/07/23 12:49:43;;;;;;;6.65;5.40;;;25.80;96.00;;;;;;5075746;28;20112;-72